createdAt,value
2022-09-20T07:39:17.612Z,9.70
2022-09-20T07:41:50.660Z,10.00
2022-09-20T07:44:24.954Z,10.30
2022-09-20T07:46:54.969Z,10.50
2022-09-20T07:49:23.604Z,10.70
2022-09-20T07:51:55.744Z,10.60
2022-09-20T07:54:27.277Z,10.60
2022-09-20T07:56:55.595Z,10.60
2022-09-20T07:59:24.323Z,10.50
2022-09-20T08:01:52.701Z,10.60
2022-09-20T08:04:21.389Z,10.70
2022-09-20T08:06:49.668Z,10.60
2022-09-20T08:09:17.910Z,10.70
2022-09-20T08:11:47.882Z,10.80
2022-09-20T08:14:17.512Z,10.80
2022-09-20T08:16:48.768Z,10.90
2022-09-20T08:19:19.268Z,10.90
2022-09-20T08:21:47.938Z,10.80
2022-09-20T08:24:16.600Z,10.70
2022-09-20T08:26:45.606Z,10.70
2022-09-20T08:29:16.164Z,10.90
2022-09-20T08:31:44.778Z,10.90
2022-09-20T08:34:15.146Z,11.00
2022-09-20T08:36:50.105Z,10.90
2022-09-20T08:42:16.124Z,11.00
2022-09-20T08:45:00.083Z,11.00
2022-09-20T08:47:31.410Z,10.90
2022-09-20T08:50:09.175Z,10.90
2022-09-20T08:52:40.233Z,11.00
2022-09-20T08:55:17.000Z,11.10
2022-09-20T08:57:50.138Z,11.20
2022-09-20T09:00:21.489Z,11.40
2022-09-20T09:02:53.247Z,11.60
2022-09-20T09:05:33.681Z,11.80
2022-09-20T09:08:19.010Z,11.80
2022-09-20T09:10:54.688Z,11.80
2022-09-20T09:13:29.535Z,11.80
2022-09-20T09:16:03.133Z,11.90
2022-09-20T09:18:38.675Z,12.10
2022-09-20T09:21:09.391Z,12.10
2022-09-20T09:23:43.053Z,12.10
2022-09-20T09:26:18.541Z,12.10
2022-09-20T09:28:48.367Z,12.30
2022-09-20T09:31:26.854Z,12.90
2022-09-20T09:33:56.039Z,13.60
2022-09-20T09:36:26.304Z,13.80
2022-09-20T09:39:16.256Z,13.80
2022-09-20T09:41:46.388Z,13.60
2022-09-20T09:44:24.423Z,13.70
2022-09-20T09:46:55.372Z,13.50
2022-09-20T09:49:25.729Z,13.20
2022-09-20T09:52:25.026Z,13.10
2022-09-20T09:54:59.968Z,13.30
2022-09-20T09:57:40.303Z,13.70
2022-09-20T10:00:21.488Z,14.40
2022-09-20T10:03:09.916Z,15.00
2022-09-20T10:05:47.617Z,15.80
2022-09-20T10:08:28.640Z,15.60
2022-09-20T10:11:06.966Z,15.40
2022-09-20T10:13:45.022Z,15.40
2022-09-20T10:16:22.022Z,15.30
2022-09-20T10:18:58.190Z,15.00
2022-09-20T10:21:41.977Z,14.90
2022-09-20T10:24:19.937Z,14.50
2022-09-20T10:27:31.719Z,14.10
2022-09-20T10:30:08.932Z,14.10
2022-09-20T10:32:50.685Z,13.90
2022-09-20T10:35:31.039Z,13.80
2022-09-20T10:38:25.250Z,13.80
2022-09-20T10:41:29.272Z,13.90
2022-09-20T10:44:07.244Z,14.10
2022-09-20T10:46:45.676Z,14.40
2022-09-20T10:49:25.231Z,14.30
2022-09-20T10:52:15.384Z,14.10
2022-09-20T10:54:57.694Z,14.00
2022-09-20T10:57:52.085Z,13.70
2022-09-20T11:00:23.939Z,13.30
2022-09-20T11:03:07.101Z,12.70
2022-09-20T11:05:47.731Z,12.30
2022-09-20T11:08:22.846Z,12.40
2022-09-20T11:10:55.514Z,12.30
2022-09-20T11:13:28.855Z,12.10
2022-09-20T11:16:04.258Z,12.10
2022-09-20T11:18:40.503Z,12.20
2022-09-20T11:21:19.194Z,12.20
2022-09-20T11:23:56.290Z,12.20
2022-09-20T11:26:31.637Z,12.40
2022-09-20T11:29:09.100Z,12.50
2022-09-20T11:31:42.327Z,12.60
2022-09-20T11:34:18.292Z,12.80
2022-09-20T11:36:54.636Z,13.00
2022-09-20T11:39:30.256Z,13.10
2022-09-20T11:42:01.232Z,13.20
2022-09-20T11:44:29.929Z,13.50
2022-09-20T11:47:04.160Z,13.80
2022-09-20T11:49:47.874Z,13.90
2022-09-20T11:52:28.717Z,14.30
2022-09-20T11:55:14.894Z,14.60
2022-09-20T11:57:43.973Z,14.70
2022-09-20T12:00:13.721Z,15.10
2022-09-20T12:02:50.004Z,15.30
2022-09-20T12:05:34.542Z,15.40
2022-09-20T12:08:06.655Z,15.00
2022-09-20T12:10:40.049Z,15.10
2022-09-20T12:13:19.875Z,15.10
2022-09-20T12:16:00.348Z,15.60
2022-09-20T12:18:37.872Z,15.80
2022-09-20T12:21:16.227Z,16.20
2022-09-20T12:24:20.558Z,16.60
2022-09-20T12:26:52.950Z,16.80
2022-09-20T12:30:16.920Z,17.10
2022-09-20T12:32:48.756Z,17.10
2022-09-20T12:35:57.153Z,17.10
2022-09-20T12:38:37.961Z,17.20
2022-09-20T12:41:12.988Z,17.80
2022-09-20T12:43:53.870Z,18.20
2022-09-20T12:46:27.073Z,18.30
2022-09-20T12:49:44.929Z,18.30
2022-09-20T12:52:57.564Z,18.20
2022-09-20T12:55:46.683Z,18.10
2022-09-20T12:58:26.057Z,17.60
2022-09-20T13:01:27.456Z,17.10
2022-09-20T13:04:35.819Z,16.80
2022-09-20T13:07:43.819Z,16.80
2022-09-20T13:10:31.736Z,16.50
2022-09-20T13:13:06.170Z,16.30
2022-09-20T13:15:41.301Z,15.90
2022-09-20T13:18:15.773Z,16.40
2022-09-20T13:20:46.519Z,17.50
2022-09-20T13:23:21.416Z,18.30
2022-09-20T13:25:52.964Z,18.70
2022-09-20T13:28:32.009Z,18.10
2022-09-20T13:31:28.782Z,17.20
2022-09-20T13:34:13.735Z,16.40
2022-09-20T13:36:44.590Z,15.80
2022-09-20T13:39:26.185Z,15.40
2022-09-20T13:41:54.728Z,15.10
2022-09-20T13:44:25.484Z,14.80
2022-09-20T13:46:53.892Z,14.60
2022-09-20T13:49:23.812Z,14.30
2022-09-20T13:51:53.589Z,14.30
2022-09-20T13:54:30.465Z,14.30
2022-09-20T13:57:01.865Z,14.40
2022-09-20T13:59:35.154Z,14.50
2022-09-20T14:02:04.629Z,14.60
2022-09-20T14:04:33.196Z,15.00
2022-09-20T14:07:09.572Z,15.20
2022-09-20T14:09:41.004Z,15.20
2022-09-20T14:12:12.230Z,15.10
2022-09-20T14:14:41.400Z,15.00
2022-09-20T14:17:10.695Z,15.10
2022-09-20T14:19:42.880Z,15.20
2022-09-20T14:22:20.189Z,15.10
2022-09-20T14:25:01.015Z,15.00
2022-09-20T14:27:31.292Z,14.90
2022-09-20T14:30:00.213Z,14.90
2022-09-20T14:32:39.695Z,15.00
2022-09-20T14:35:17.949Z,15.00
2022-09-20T14:37:50.658Z,15.00
2022-09-20T14:40:24.103Z,14.90
2022-09-20T14:42:56.939Z,14.80
2022-09-20T14:45:29.960Z,14.90
2022-09-20T14:48:06.716Z,14.80
2022-09-20T14:50:40.633Z,14.70
2022-09-20T14:53:27.696Z,14.40
2022-09-20T14:56:09.966Z,14.40
2022-09-20T14:59:07.633Z,14.30
2022-09-20T15:01:38.995Z,14.20
2022-09-20T15:04:09.833Z,14.10
2022-09-20T15:06:40.221Z,14.00
2022-09-20T15:09:12.578Z,14.00
2022-09-20T15:11:40.970Z,13.90
2022-09-20T15:14:09.410Z,13.90
2022-09-20T15:16:37.948Z,13.90
2022-09-20T15:19:08.432Z,14.00
2022-09-20T15:21:37.299Z,13.90
2022-09-20T15:24:05.863Z,13.80
2022-09-20T15:26:35.598Z,13.80
2022-09-20T15:29:03.995Z,13.80
2022-09-20T15:31:32.376Z,13.70
2022-09-20T15:34:01.251Z,13.60
2022-09-20T15:36:32.035Z,13.50
2022-09-20T15:39:01.268Z,13.60
2022-09-20T15:41:33.635Z,13.60
2022-09-20T15:44:04.739Z,13.60
2022-09-20T15:46:33.373Z,13.60
2022-09-20T15:49:03.224Z,13.60
2022-09-20T15:51:31.593Z,13.40
2022-09-20T15:54:01.268Z,13.40
2022-09-20T15:56:31.433Z,13.40
2022-09-20T15:59:01.811Z,13.40
2022-09-20T16:01:33.126Z,13.40
2022-09-20T16:04:05.951Z,13.40
2022-09-20T16:06:34.844Z,13.30
2022-09-20T16:09:03.278Z,13.20
2022-09-20T16:11:32.241Z,13.20
2022-09-20T16:14:02.059Z,13.30
2022-09-20T16:16:37.616Z,13.10
2022-09-20T16:19:23.651Z,13.20
2022-09-20T16:21:57.869Z,13.20
2022-09-20T16:24:29.650Z,13.20
2022-09-20T16:26:58.531Z,13.10
2022-09-20T16:29:29.409Z,13.00
2022-09-20T16:32:00.259Z,13.00
2022-09-20T16:34:31.337Z,13.00
2022-09-20T16:37:03.650Z,12.90
2022-09-20T16:39:32.485Z,12.90
2022-09-20T16:42:04.754Z,12.90
2022-09-20T16:44:34.238Z,13.00
2022-09-20T16:47:07.976Z,13.00
2022-09-20T16:49:36.818Z,13.00
2022-09-20T16:52:05.977Z,13.00
2022-09-20T16:54:34.592Z,13.00
2022-09-20T16:57:03.065Z,13.00
2022-09-20T16:59:31.723Z,13.00
2022-09-20T17:02:02.773Z,13.00
2022-09-20T17:04:32.631Z,13.00
2022-09-20T17:07:01.845Z,12.90
2022-09-20T17:09:30.351Z,12.80
2022-09-20T17:11:59.485Z,12.80
2022-09-20T17:14:27.865Z,12.70
2022-09-20T17:16:56.854Z,12.70
2022-09-20T17:19:26.627Z,12.70
2022-09-20T17:21:56.219Z,12.60
2022-09-20T17:24:25.477Z,12.50
2022-09-20T17:26:53.939Z,12.40
2022-09-20T17:29:22.481Z,12.40
2022-09-20T17:31:55.689Z,12.40
2022-09-20T17:34:25.665Z,12.40
2022-09-20T17:36:55.605Z,12.30
2022-09-20T17:39:25.840Z,12.20
2022-09-20T17:41:54.552Z,12.00
2022-09-20T17:44:22.840Z,11.70
2022-09-20T17:46:54.301Z,11.70
2022-09-20T17:49:26.435Z,11.70
2022-09-20T17:51:59.963Z,11.50
